Etusivu
METAR-TAF:

METAR-TAF

Lentoasemat :

Kajaani, Suomi

Kajaanin lentoasema

Leveyspiiri: 64-17N, Pituuspiiri: 027-41E, korkeus merenpinnasta: 143 m

Tämänhetkinen sää

Tämä raportti tehtiin 37 minuuttia sitten, kello 04.20 UTC
Tuuli 8 kn idästä/kaakosta, vaihdellen idän ja etelän/kaakon välillä
Lämpötila 6°C
Kosteus 81%
Ilmanpaine 1031 hPa
Näkyvyys 10 km tai enemmän
Muutamia pilviä 1300 ft:n korkeudessa
Hajonneita pilviä 4100 ft:n korkeudessa

METAR: EFKI 210420Z AUTO 11008KT 090V160 9999 FEW013 BKN041 06/03 Q1031

Aika: 07:57 (04:57 UTC)

Sääennuste

Tämä raportti tehtiin 2 tuntia ja 23 minuuttia sitten, kello 02.34 UTC
Ennuste voimassa 21. päivästä klo 03 UTC - 21. päivään klo 12 UTC
Tuuli 8 kn idästä
Näkyvyys 10 km tai enemmän
Hajonneita pilviä 1700 ft:n korkeudessa
Ajoittain
21. päivästä klo 03 UTC - 21. päivään klo 09 UTC
Hajonneita pilviä 900 ft:n korkeudessa

TAF: EFKI 210234Z 2103/2112 10008KT 9999 BKN017 TEMPO 2103/2109 BKN009

Säähavainnot ja -ennusteet yli 4000 lentoasemalta (METAR- ja TAF-raportit).

Käytössä olevat sääasemat on merkitty karttaan keltaisilla ja punaisilla pisteillä.

Aseta hiiri pisteen päälle nähdäksesi sääaseman nimen.

Klikkaa sitten nähdäksesi säähavainnot ja -ennusteet.

Kartan vaihtaminen: klikkaa mustalla rastilla varustettuja vihreitä pisteitä, niin voit zoomata sisään; viivalla varustettua vihreää pistettä, niin voit zoomata ulos tai vihreitä nuolia, niin pääset viereisille kartoille.


METAR-TAF: